Atwater, CA

2:43 PM PDT on July 28, 2015 (GMT -0700)
Beachwood Area - Merced | | Change Station
CLOSE
Current Station
Personal Weather Station
Location: Merced, CA
Elevation: 151 ft
Nearby Weather Stations

Elev 151 ft 37.32 °N, 120.52 °W | Updated 15 seconds ago

Clear
Clear
97.2 °F
Feels Like 92 °F
N
0.9
Wind Variable Wind from ENE
Gusts 2.5 mph

Today
High -- | Low -- °F
--% Chance of Precip.
Yesterday
High -- | Low -- °F
Precip. -- in
6:03 AM 8:13 PM
Waxing Gibbous, 91% visible
Pressure 29.83 in
Visibility 10.0 miles
Clouds Clear
Heat Index 92 °F
Dew Point 32 °F
Humidity 10%
Rainfall 0.00 in
Snow Depth Not available.
UV 6.0 out of 12
Pollen 4.70 out of 12
Air Quality Not available.
Flu Activity Not available.
METAR KMCE 282053Z AUTO 31009KT 10SM CLR 35/07 A2983 RMK AO2 SLPNO T03500067

More Conditions Fewer Conditions

Pressure 29.83 in
Visibility 10.0 miles
Clouds Clear
Heat Index 92 °F
Dew Point 32 °F
Humidity 10%
Rainfall 0.00 in
Snow Depth Not available.
UV 6.0 out of 12
Pollen 4.70 out of 12
Air Quality Not available.
Flu Activity Not available.
METAR KMCE 282053Z AUTO 31009KT 10SM CLR 35/07 A2983 RMK AO2 SLPNO T03500067

More Conditions Fewer Conditions

A strong ridge of high pressure will aid in providing some of the warmest temperatures of the Summer thus far along the West Coast, while dangerously high heat index values up to 110 degrees will be possible from southern Iowa through northern Louisiana. Residents are urged to take precaution while working outside.

10-Day Weather Forecast

×

Almanac

Astronomy

Jul. 28, 2015 Rise Set
Actual Time
Civil Twilight
Nautical Twilight
Astronomical Twilight
Moon
Length of Visible Light
Length of Day
Tomorrow will be .
, % of the Moon is Illuminated

Today's Extremes

State Highs State Lows

Community

WunderPhotos

Upload Photos

1,841,948 photos uploaded!

WunderBlogs® & News

Nearby

Air Quality

  Air Quality AQ Index Pollutant
Not available.

Snow Depth

Station Depth Elevation

Earthquake Activity

City Distance Mag. Time & Date
Minimum magnitude displayed is 2.5.

Coastal Water Temperatures

Place Temperature

Stations

Nearby Weather Stations

Station Location Temp. Windchill Dew Point Humidity Wind Precip. Elev Updated Type